Historique des mesures à Cassis (13260), France
Quotidien Résumé Janvier 19, 2018 Unités:  Métrique    US   Métrique/US
« Précédent (Jour)
Suivant (Jour) »
Quotidien Hebdomadaire Mensuel Annuel Période au choix
  Maximum: Minimum: Moyenne:
Température: TemperatureC °C 10.4 °C 11.5 °C
Point de rosée: DewpointC °C 2.1 °C 4.6 °C
Humidité: Humidity % 49 % 60 %
Vitesse du vent: 0 km/h 0 km/h 17.7 km/h
Rafales: 0 km/h - -
Vent:- - WSW
Pression: PressurehPa hPa 1009.7 hPa -
Précipitations: 0.0 mm    
Historical Graphs
 
 
Mesures pour : Janvier 19, 2018
Heure Temperature Point de rosée Pression Vent Vitesse du vent Rafales Humidité Pluie (par heure) Conditions
TemperatureC °C DewpointC °C PressurehPa hPa Calm     Humidity % HourlyPrecipMM mm SoftwareType W/m2
00:12 10.9 °C 6.1 °C 1013.1 hPa Calm   3.4 km/h 72 % 0.0 mm open2300-1.11 W/m2
01:12 10.9 °C 6.1 °C 1012.8 hPa WNW 15.6 km/h 19.6 km/h 72 % 0.0 mm open2300-1.11 W/m2
02:12 11.1 °C 6.4 °C 1012.8 hPa WNW 9.8 km/h 9.8 km/h 73 % 0.0 mm open2300-1.11 W/m2
03:12 10.8 °C 6.4 °C 1012.8 hPa Calm   8 km/h 74 % 0.0 mm open2300-1.11 W/m2
04:12 10.6 °C 6.3 °C 1012.1 hPa Calm   5.1 km/h 75 % 0.0 mm open2300-1.11 W/m2
05:12 11.2 °C 6.9 °C 1011.4 hPa NNW 16.3 km/h 16.3 km/h 75 % 0.0 mm open2300-1.11 W/m2
06:12 10.9 °C 6.7 °C 1011.1 hPa North 12.2 km/h 12.2 km/h 75 % 0.0 mm open2300-1.11 W/m2
07:12 11.3 °C 6.8 °C 1010.7 hPa NNE 11.6 km/h 22 km/h 74 % 0.0 mm open2300-1.11 W/m2
08:12 11.2 °C 6.7 °C 1011.1 hPa WNW 19.2 km/h 19.2 km/h 74 % 0.0 mm open2300-1.11 W/m2
09:12 11.6 °C 6.7 °C 1010.4 hPa NNW 12.2 km/h 46.3 km/h 72 % 0.0 mm open2300-1.11 W/m2
10:12 11.8 °C 6.5 °C 1010.4 hPa NNW 24.8 km/h 46.3 km/h 70 % 0.0 mm open2300-1.11 W/m2
11:12 12.9 °C 5.3 °C 1010.4 hPa WNW 64.2 km/h 64.2 km/h 60 % 0.0 mm open2300-1.11 W/m2
12:12 13.8 °C 4.1 °C 1010.0 hPa NNW 23 km/h 56.2 km/h 52 % 0.0 mm open2300-1.11 W/m2
13:12 13.7 °C 3.2 °C 1010.0 hPa WNW 62.6 km/h 62.6 km/h 49 % 0.0 mm open2300-1.11 W/m2
14:12 13.9 °C 3.7 °C 1009.7 hPa WNW 38.8 km/h 47.3 km/h 50 % 0.0 mm open2300-1.11 W/m2
15:12 14.3 °C 4.6 °C 1010.0 hPa North 19.2 km/h 19.2 km/h 52 % 0.0 mm open2300-1.11 W/m2
16:12 14.3 °C 4.3 °C 1010.4 hPa North 42.2 km/h 42.2 km/h 51 % 0.0 mm open2300-1.11 W/m2
17:12 13.5 °C 3.0 °C 1010.4 hPa NNW 9.8 km/h 48.1 km/h 49 % 0.0 mm open2300-1.11 W/m2
18:12 12.8 °C 2.3 °C 1011.4 hPa NNW 5.6 km/h 31.9 km/h 49 % 0.0 mm open2300-1.11 W/m2
19:12 12.2 °C 2.1 °C 1012.1 hPa NNW 8.9 km/h 19.2 km/h 50 % 0.0 mm open2300-1.11 W/m2
20:12 11.6 °C 2.1 °C 1012.8 hPa WNW 5.1 km/h 9.3 km/h 52 % 0.0 mm open2300-1.11 W/m2
21:12 11.0 °C 2.2 °C 1013.1 hPa NW 10.3 km/h 15.6 km/h 55 % 0.0 mm open2300-1.11 W/m2
22:12 10.8 °C 2.6 °C 1013.8 hPa NNW 15 km/h 15 km/h 57 % 0.0 mm open2300-1.11 W/m2
23:12 10.4 °C 2.7 °C 1013.8 hPa WNW 15 km/h 23.8 km/h 59 % 0.0 mm open2300-1.11 W/m2
Observations météo à CASSIS
WU-History script by Weather Underground - 1 mb